createdAt,value
2019-05-03T00:02:17.873Z,11.00
2019-05-03T00:04:47.987Z,11.00
2019-05-03T00:07:16.468Z,11.00
2019-05-03T00:09:44.935Z,11.00
2019-05-03T00:14:43.352Z,10.80
2019-05-03T00:17:11.808Z,10.80
2019-05-03T00:19:42.071Z,10.80
2019-05-03T00:22:12.215Z,10.70
2019-05-03T00:24:42.433Z,10.70
2019-05-03T00:27:12.321Z,10.70
2019-05-03T00:29:41.791Z,10.70
2019-05-03T00:32:12.296Z,10.60
2019-05-03T00:34:42.280Z,10.60
2019-05-03T00:37:18.032Z,10.60
2019-05-03T00:42:35.505Z,10.60
2019-05-03T00:45:06.359Z,10.50
2019-05-03T00:47:34.751Z,10.40
2019-05-03T00:50:04.204Z,10.40
2019-05-03T00:52:32.607Z,10.40
2019-05-03T00:57:32.305Z,10.40
2019-05-03T01:02:31.850Z,10.50
2019-05-03T01:05:02.633Z,10.40
2019-05-03T01:07:31.899Z,10.40
2019-05-03T01:10:02.656Z,10.40
2019-05-03T01:12:32.440Z,10.30
2019-05-03T01:15:02.804Z,10.30
2019-05-03T01:17:32.033Z,10.30
2019-05-03T01:20:02.559Z,10.30
2019-05-03T01:22:32.222Z,10.30
2019-05-03T01:25:02.617Z,10.20
2019-05-03T01:30:02.619Z,10.20
2019-05-03T01:32:32.687Z,10.10
2019-05-03T01:37:31.938Z,10.10
2019-05-03T01:40:02.401Z,10.10
2019-05-03T01:42:32.078Z,10.10
2019-05-03T01:47:34.871Z,10.00
2019-05-03T01:50:13.820Z,10.00
2019-05-03T01:52:43.857Z,10.00
2019-05-03T01:55:15.725Z,10.00
2019-05-03T02:00:13.923Z,10.00
2019-05-03T02:02:43.972Z,10.00
2019-05-03T02:08:02.104Z,10.00
2019-05-03T02:10:32.187Z,10.00
2019-05-03T02:17:58.380Z,10.00
2019-05-03T02:20:26.780Z,9.90
2019-05-03T02:25:23.248Z,9.90
2019-05-03T02:30:24.759Z,10.00
2019-05-03T02:35:22.744Z,9.90
2019-05-03T02:37:53.291Z,9.90
2019-05-03T02:40:24.559Z,9.90
2019-05-03T02:43:06.218Z,9.90
2019-05-03T02:45:36.693Z,9.90
2019-05-03T02:48:09.854Z,10.00
2019-05-03T02:50:38.245Z,10.00
2019-05-03T02:55:36.388Z,10.00
2019-05-03T03:00:58.337Z,10.00
2019-05-03T03:03:30.809Z,10.00
2019-05-03T03:06:01.553Z,10.00
2019-05-03T03:08:33.374Z,10.00
2019-05-03T03:13:37.635Z,10.00
2019-05-03T03:16:08.686Z,10.00
2019-05-03T03:18:39.895Z,9.90
2019-05-03T03:21:11.774Z,9.90
2019-05-03T03:24:01.102Z,9.90
2019-05-03T03:26:37.719Z,9.90
2019-05-03T03:29:05.635Z,9.90
2019-05-03T03:31:49.611Z,9.90
2019-05-03T03:34:21.011Z,9.90
2019-05-03T03:37:00.991Z,9.90
2019-05-03T03:39:25.688Z,10.00
2019-05-03T03:41:55.905Z,9.90
2019-05-03T03:44:25.726Z,9.90
2019-05-03T03:46:56.063Z,9.90
2019-05-03T03:49:28.094Z,9.90
2019-05-03T03:51:58.324Z,9.90
2019-05-03T03:54:28.271Z,9.90
2019-05-03T03:57:03.829Z,10.00
2019-05-03T03:59:27.238Z,10.00
2019-05-03T04:01:55.850Z,9.90
2019-05-03T04:04:25.959Z,9.90
2019-05-03T04:06:58.391Z,9.90
2019-05-03T04:09:25.748Z,9.90
2019-05-03T04:11:56.832Z,9.90
2019-05-03T04:17:00.202Z,10.00
2019-05-03T04:22:11.352Z,9.90
2019-05-03T04:24:39.755Z,9.90
2019-05-03T04:27:18.575Z,9.90
2019-05-03T04:29:39.413Z,9.90
2019-05-03T04:32:10.115Z,9.90
2019-05-03T04:37:06.673Z,9.90
2019-05-03T04:39:35.866Z,9.90
2019-05-03T04:42:06.745Z,9.90
2019-05-03T04:47:06.930Z,9.90
2019-05-03T04:49:36.193Z,10.00
2019-05-03T04:52:05.809Z,10.00
2019-05-03T04:54:39.116Z,10.00
2019-05-03T04:57:07.593Z,10.10
2019-05-03T05:04:35.770Z,10.30
2019-05-03T05:07:06.232Z,10.30
2019-05-03T05:09:35.093Z,10.30
2019-05-03T05:12:05.717Z,10.40
2019-05-03T05:14:35.267Z,10.50
2019-05-03T05:17:06.122Z,10.60
2019-05-03T05:19:42.156Z,10.60
2019-05-03T05:22:15.622Z,10.60
2019-05-03T05:24:44.984Z,10.60
2019-05-03T05:27:27.118Z,10.50
2019-05-03T05:32:45.279Z,10.50
2019-05-03T05:35:14.339Z,10.50
2019-05-03T05:37:44.393Z,10.60
2019-05-03T05:40:15.521Z,10.60
2019-05-03T05:42:45.406Z,10.70
2019-05-03T05:45:15.293Z,10.80
2019-05-03T05:47:51.509Z,10.90
2019-05-03T05:50:27.074Z,11.00
2019-05-03T05:58:11.874Z,11.20
2019-05-03T06:00:41.920Z,11.20
2019-05-03T06:05:38.477Z,11.00
2019-05-03T06:08:11.222Z,10.90
2019-05-03T06:10:45.110Z,10.90
2019-05-03T06:13:26.324Z,10.80
2019-05-03T06:15:56.048Z,10.80
2019-05-03T06:21:04.722Z,11.00
2019-05-03T06:23:37.599Z,11.10
2019-05-03T06:26:07.658Z,11.20
2019-05-03T06:28:36.057Z,11.30
2019-05-03T06:31:11.824Z,11.40
2019-05-03T06:33:40.224Z,11.40
2019-05-03T06:36:08.919Z,11.50
2019-05-03T06:38:37.317Z,11.40
2019-05-03T06:43:34.819Z,11.30
2019-05-03T06:48:34.782Z,11.30
2019-05-03T06:51:08.804Z,11.20
2019-05-03T06:53:34.516Z,11.20
2019-05-03T06:56:04.562Z,11.30
2019-05-03T06:58:36.192Z,11.40
2019-05-03T07:01:07.669Z,11.50
2019-05-03T07:03:40.507Z,11.60
2019-05-03T07:06:16.492Z,11.70
2019-05-03T07:08:52.317Z,11.70
2019-05-03T07:11:20.716Z,11.60
2019-05-03T07:13:49.129Z,11.60
2019-05-03T07:16:17.537Z,11.70
2019-05-03T07:18:45.944Z,11.80
2019-05-03T07:21:15.282Z,11.90
2019-05-03T07:23:45.090Z,12.00
2019-05-03T07:26:15.096Z,12.10
2019-05-03T07:28:47.826Z,12.10
2019-05-03T07:31:15.103Z,12.10
2019-05-03T07:33:44.631Z,12.10
2019-05-03T07:36:15.290Z,12.00
2019-05-03T07:38:45.383Z,11.90
2019-05-03T07:41:14.932Z,11.80
2019-05-03T07:43:45.067Z,11.80
2019-05-03T07:48:45.546Z,11.80
2019-05-03T07:51:14.439Z,11.80
2019-05-03T07:53:45.047Z,11.80
2019-05-03T07:56:15.422Z,11.70
2019-05-03T07:58:59.075Z,11.60
2019-05-03T08:01:29.677Z,11.50
2019-05-03T08:06:26.220Z,11.60
2019-05-03T08:11:24.888Z,11.60
2019-05-03T08:13:55.011Z,11.70
2019-05-03T08:16:25.127Z,11.90
2019-05-03T08:18:55.904Z,12.10
2019-05-03T08:21:25.224Z,12.40
2019-05-03T08:23:55.705Z,12.40
2019-05-03T08:26:25.722Z,12.50
2019-05-03T08:28:54.642Z,12.40
2019-05-03T08:31:27.702Z,12.50
2019-05-03T08:34:00.704Z,12.60
2019-05-03T08:38:58.909Z,13.80
2019-05-03T08:41:28.951Z,14.30
2019-05-03T08:43:57.365Z,14.90
2019-05-03T08:46:25.765Z,14.90
2019-05-03T08:48:54.827Z,14.70
2019-05-03T08:51:44.388Z,14.50
2019-05-03T08:54:14.976Z,14.10
2019-05-03T08:56:45.093Z,13.90
2019-05-03T08:59:26.562Z,14.00
2019-05-03T09:01:45.355Z,14.10
2019-05-03T09:04:15.374Z,14.30
2019-05-03T09:06:44.635Z,14.60
2019-05-03T09:09:20.863Z,14.80
2019-05-03T09:11:49.261Z,14.80
2019-05-03T09:14:17.737Z,14.80
2019-05-03T09:19:14.784Z,15.00
2019-05-03T09:21:45.269Z,14.90
2019-05-03T09:24:15.166Z,14.70
2019-05-03T09:26:44.962Z,14.40
2019-05-03T09:29:14.811Z,14.20
2019-05-03T09:31:44.693Z,14.20
2019-05-03T09:34:14.746Z,14.40
2019-05-03T09:36:44.849Z,14.50
2019-05-03T09:39:14.913Z,14.50
2019-05-03T09:41:45.058Z,14.40
2019-05-03T09:44:15.078Z,14.10
2019-05-03T09:49:16.235Z,13.50
2019-05-03T09:51:44.454Z,13.30
2019-05-03T09:54:17.625Z,13.10
2019-05-03T09:59:29.468Z,12.60
2019-05-03T10:01:58.621Z,12.40
2019-05-03T10:04:27.113Z,12.20
2019-05-03T10:06:55.537Z,12.10
2019-05-03T10:11:55.130Z,12.10
2019-05-03T10:14:24.344Z,12.20
2019-05-03T10:16:57.363Z,12.30
2019-05-03T10:19:36.663Z,12.40
2019-05-03T10:21:55.966Z,12.50
2019-05-03T10:24:24.380Z,12.50
2019-05-03T10:26:55.084Z,12.80
2019-05-03T10:34:22.428Z,13.30
2019-05-03T10:36:50.828Z,13.20
2019-05-03T10:41:47.325Z,12.70
2019-05-03T10:46:45.274Z,12.40
2019-05-03T10:49:15.319Z,12.30
2019-05-03T10:54:14.615Z,12.40
2019-05-03T10:56:50.604Z,12.50
2019-05-03T10:59:20.067Z,12.60
2019-05-03T11:01:54.510Z,12.70
2019-05-03T11:04:23.734Z,12.70
2019-05-03T11:06:52.149Z,12.70
2019-05-03T11:09:20.552Z,12.70
2019-05-03T11:11:49.015Z,12.70
2019-05-03T11:16:46.169Z,12.90
2019-05-03T11:21:45.339Z,13.10
2019-05-03T11:24:14.703Z,13.30
2019-05-03T11:26:45.410Z,13.40
2019-05-03T11:29:15.825Z,13.50
2019-05-03T11:31:45.886Z,13.60
2019-05-03T11:34:22.411Z,13.70
2019-05-03T11:37:06.040Z,13.90
2019-05-03T11:39:34.496Z,14.10
2019-05-03T11:42:04.670Z,14.30
2019-05-03T11:44:39.056Z,14.40
2019-05-03T11:47:08.863Z,14.50
2019-05-03T11:49:37.420Z,14.50
2019-05-03T11:52:06.470Z,14.80
2019-05-03T11:54:35.974Z,14.90
2019-05-03T11:57:06.283Z,15.00
2019-05-03T11:59:34.692Z,15.10
2019-05-03T12:02:10.184Z,15.10
2019-05-03T12:04:38.591Z,15.10
2019-05-03T12:07:06.996Z,15.10
2019-05-03T12:09:35.403Z,15.10
2019-05-03T12:12:04.878Z,15.10
2019-05-03T12:14:34.618Z,15.20
2019-05-03T12:17:18.068Z,15.20
2019-05-03T12:19:39.248Z,15.20
2019-05-03T12:22:08.486Z,15.20
2019-05-03T12:27:06.868Z,15.20
2019-05-03T12:29:35.354Z,15.30
2019-05-03T12:32:05.262Z,15.20
2019-05-03T12:34:35.225Z,15.20
2019-05-03T12:37:05.126Z,15.20
2019-05-03T12:39:35.767Z,15.40
2019-05-03T12:42:05.888Z,15.60
2019-05-03T12:44:35.424Z,15.60
2019-05-03T12:47:06.059Z,15.50
2019-05-03T12:49:35.865Z,15.40
2019-05-03T12:52:05.267Z,15.40
2019-05-03T12:54:35.610Z,15.30
2019-05-03T12:57:05.029Z,15.00
2019-05-03T13:02:26.612Z,14.40
2019-05-03T13:04:55.445Z,14.20
2019-05-03T13:07:25.640Z,14.00
2019-05-03T13:09:54.537Z,13.80
2019-05-03T13:12:25.367Z,13.70
2019-05-03T13:14:53.960Z,13.60
2019-05-03T13:17:40.136Z,13.40
2019-05-03T13:22:45.774Z,12.80
2019-05-03T13:25:15.482Z,12.60
2019-05-03T13:27:45.974Z,12.50
2019-05-03T13:30:15.931Z,12.40
2019-05-03T13:32:45.709Z,12.30
2019-05-03T13:35:15.034Z,12.30
2019-05-03T13:37:45.330Z,12.30
2019-05-03T13:40:14.696Z,12.30
2019-05-03T13:42:54.227Z,12.30
2019-05-03T13:45:13.404Z,12.30
2019-05-03T13:47:41.800Z,12.30
2019-05-03T13:50:10.656Z,12.30
2019-05-03T13:52:39.048Z,12.30
2019-05-03T13:55:08.000Z,12.30
2019-05-03T14:00:09.444Z,12.50
2019-05-03T14:02:37.911Z,12.60
2019-05-03T14:05:07.979Z,12.60
2019-05-03T14:07:36.360Z,12.70
2019-05-03T14:10:07.768Z,12.70
2019-05-03T14:12:55.587Z,12.60
2019-05-03T14:15:25.524Z,12.50
2019-05-03T14:20:26.187Z,12.40
2019-05-03T14:22:54.950Z,12.30
2019-05-03T14:25:24.708Z,12.20
2019-05-03T14:27:55.007Z,12.10
2019-05-03T14:30:25.286Z,12.10
2019-05-03T14:35:25.074Z,12.20
2019-05-03T14:37:55.046Z,12.20
2019-05-03T14:42:55.459Z,12.50
2019-05-03T14:45:25.488Z,12.40
2019-05-03T14:50:25.375Z,12.20
2019-05-03T14:55:34.617Z,12.00
2019-05-03T14:58:04.955Z,12.00
2019-05-03T15:05:52.476Z,12.00
2019-05-03T15:08:20.883Z,11.90
2019-05-03T15:10:49.301Z,11.90
2019-05-03T15:13:17.689Z,11.80
2019-05-03T15:18:34.842Z,11.60
2019-05-03T15:23:34.722Z,11.60
2019-05-03T15:26:05.118Z,11.70
2019-05-03T15:33:35.196Z,12.00
2019-05-03T15:36:04.751Z,12.10
2019-05-03T15:38:34.654Z,12.00
2019-05-03T15:43:51.030Z,11.80
2019-05-03T15:46:25.193Z,11.80
2019-05-03T15:51:24.523Z,11.80
2019-05-03T15:53:54.983Z,11.90
2019-05-03T15:56:25.094Z,11.90
2019-05-03T15:58:55.210Z,11.90
2019-05-03T16:01:24.828Z,12.00
2019-05-03T16:06:21.561Z,11.90
2019-05-03T16:08:49.965Z,11.90
2019-05-03T16:11:18.377Z,11.90
2019-05-03T16:13:46.765Z,11.80
2019-05-03T16:16:15.550Z,11.80
2019-05-03T16:18:44.863Z,11.70
2019-05-03T16:21:14.592Z,11.60
2019-05-03T16:23:46.305Z,11.60
2019-05-03T16:26:14.348Z,11.40
2019-05-03T16:31:19.761Z,11.30
2019-05-03T16:33:48.178Z,11.30
2019-05-03T16:36:16.573Z,11.20
2019-05-03T16:41:17.477Z,11.30
2019-05-03T16:43:45.579Z,11.30
2019-05-03T16:46:14.518Z,11.20
2019-05-03T16:48:44.777Z,11.30
2019-05-03T16:51:15.090Z,11.30
2019-05-03T16:53:44.511Z,11.30
2019-05-03T16:56:16.510Z,11.20
2019-05-03T17:01:15.992Z,11.10
2019-05-03T17:03:47.931Z,11.20
2019-05-03T17:06:29.885Z,11.20
2019-05-03T17:09:06.063Z,11.20
2019-05-03T17:11:34.781Z,11.20
2019-05-03T17:14:05.006Z,11.20
2019-05-03T17:16:34.413Z,11.30
2019-05-03T17:19:02.937Z,11.30
2019-05-03T17:21:31.506Z,11.20
2019-05-03T17:23:59.923Z,11.20
2019-05-03T17:28:56.485Z,11.20
2019-05-03T17:31:24.889Z,11.20
2019-05-03T17:33:56.517Z,11.10
2019-05-03T17:36:25.086Z,11.10
2019-05-03T17:41:31.512Z,11.00
2019-05-03T17:44:04.983Z,11.00
2019-05-03T17:46:34.738Z,11.00
2019-05-03T17:49:05.157Z,11.00
2019-05-03T17:51:41.432Z,10.90
2019-05-03T17:56:55.712Z,10.80
2019-05-03T17:59:25.771Z,10.80
2019-05-03T18:02:12.307Z,10.80
2019-05-03T18:04:51.432Z,10.80
2019-05-03T18:07:21.478Z,10.80
2019-05-03T18:09:51.529Z,10.80
2019-05-03T18:12:19.934Z,10.80
2019-05-03T18:14:48.340Z,10.80
2019-05-03T18:17:16.741Z,10.70
2019-05-03T18:22:15.351Z,10.70
2019-05-03T18:24:45.544Z,10.70
2019-05-03T18:27:15.044Z,10.70
2019-05-03T18:29:44.921Z,10.70
2019-05-03T18:32:14.693Z,10.60
2019-05-03T18:34:45.193Z,10.60
2019-05-03T18:37:15.102Z,10.50
2019-05-03T18:39:45.243Z,10.50
2019-05-03T18:42:15.304Z,10.50
2019-05-03T18:47:18.272Z,10.50
2019-05-03T18:49:46.700Z,10.50
2019-05-03T18:57:13.088Z,10.40
2019-05-03T18:59:41.496Z,10.50
2019-05-03T19:02:10.038Z,10.50
2019-05-03T19:04:40.080Z,10.60
2019-05-03T19:07:10.200Z,10.60
2019-05-03T19:09:49.409Z,10.50
2019-05-03T19:14:56.740Z,10.50
2019-05-03T19:17:35.992Z,10.40
2019-05-03T19:20:06.813Z,10.40
2019-05-03T19:22:35.480Z,10.40
2019-05-03T19:32:35.650Z,10.30
2019-05-03T19:35:05.113Z,10.30
2019-05-03T19:40:01.906Z,10.20
2019-05-03T19:44:58.388Z,10.30
2019-05-03T19:47:26.786Z,10.30
2019-05-03T19:49:55.243Z,10.20
2019-05-03T19:52:31.179Z,10.20
2019-05-03T19:54:59.607Z,10.20
2019-05-03T19:57:32.359Z,10.20
2019-05-03T20:00:00.760Z,10.10
2019-05-03T20:02:45.751Z,10.10
2019-05-03T20:12:57.584Z,10.20
2019-05-03T20:15:26.002Z,10.20
2019-05-03T20:17:59.860Z,10.20
2019-05-03T20:20:24.520Z,10.20
2019-05-03T20:22:54.819Z,10.20
2019-05-03T20:25:24.410Z,10.20
2019-05-03T20:27:53.080Z,10.10
2019-05-03T20:30:21.489Z,10.10
2019-05-03T20:35:19.325Z,10.00
2019-05-03T20:40:16.174Z,10.00
2019-05-03T20:45:24.925Z,10.00
2019-05-03T20:47:55.056Z,10.00
2019-05-03T20:50:24.787Z,10.00
2019-05-03T20:52:54.936Z,10.00
2019-05-03T20:57:51.603Z,10.00
2019-05-03T21:05:29.676Z,9.90
2019-05-03T21:10:18.726Z,9.80
2019-05-03T21:12:47.123Z,9.80
2019-05-03T21:20:37.552Z,9.70
2019-05-03T21:23:25.042Z,9.70
2019-05-03T21:26:13.343Z,9.70
2019-05-03T21:28:41.790Z,9.70
2019-05-03T21:31:10.212Z,9.70
2019-05-03T21:33:38.614Z,9.70
2019-05-03T21:36:07.020Z,9.60
2019-05-03T21:38:35.700Z,9.60
2019-05-03T21:41:05.289Z,9.70
2019-05-03T21:43:34.793Z,9.70
2019-05-03T21:46:05.618Z,9.70
2019-05-03T21:48:51.956Z,9.80
2019-05-03T21:51:20.359Z,9.70
2019-05-03T21:53:48.757Z,9.80
2019-05-03T21:56:17.169Z,9.80
2019-05-03T21:58:45.940Z,9.80
2019-05-03T22:03:44.781Z,10.00
2019-05-03T22:06:15.425Z,9.90
2019-05-03T22:08:45.341Z,9.90
2019-05-03T22:11:14.835Z,9.80
2019-05-03T22:13:45.435Z,9.80
2019-05-03T22:16:18.584Z,9.80
2019-05-03T22:21:28.421Z,9.70
2019-05-03T22:24:01.485Z,9.60
2019-05-03T22:26:47.959Z,9.60
2019-05-03T22:29:17.241Z,9.60
2019-05-03T22:31:45.858Z,9.60
2019-05-03T22:34:15.091Z,9.60
2019-05-03T22:39:13.069Z,9.60
2019-05-03T22:41:41.510Z,9.60
2019-05-03T22:46:37.990Z,9.50
2019-05-03T22:49:06.406Z,9.60
2019-05-03T22:54:04.732Z,9.50
2019-05-03T22:59:01.493Z,9.30
2019-05-03T23:03:57.960Z,9.30
2019-05-03T23:06:26.368Z,9.20
2019-05-03T23:08:56.197Z,9.20
2019-05-03T23:11:24.713Z,9.20
2019-05-03T23:16:31.270Z,9.20
2019-05-03T23:19:00.111Z,9.20
2019-05-03T23:21:30.222Z,9.30
2019-05-03T23:23:58.616Z,9.50
2019-05-03T23:28:55.216Z,9.30
2019-05-03T23:31:25.199Z,9.20
2019-05-03T23:33:54.505Z,9.20
2019-05-03T23:36:32.704Z,9.10
2019-05-03T23:38:54.560Z,9.10
2019-05-03T23:41:24.545Z,9.20
2019-05-03T23:43:53.153Z,9.20
2019-05-03T23:46:25.190Z,9.20
2019-05-03T23:48:53.312Z,9.10
2019-05-03T23:54:07.982Z,8.70
2019-05-03T23:56:36.464Z,8.60
2019-05-03T23:59:05.521Z,8.50
